sensor_id;sensor_type;location;lat;lon;timestamp;pressure;altitude;pressure_sealevel;temperature;humidity
58739;BME280;44512;53.046;18.604;2022-07-17T00:07:10;102104.77;;;15.06;63.93
58739;BME280;44512;53.046;18.604;2022-07-17T00:17:39;102105.98;;;15.04;63.93
58739;BME280;44512;53.046;18.604;2022-07-17T00:28:07;102105.15;;;15.03;63.92
58739;BME280;44512;53.046;18.604;2022-07-17T00:38:35;102111.65;;;15.02;63.80
58739;BME280;44512;53.046;18.604;2022-07-17T00:49:04;102126.70;;;14.98;63.75
58739;BME280;44512;53.046;18.604;2022-07-17T00:59:32;102131.05;;;14.93;63.83
58739;BME280;44512;53.046;18.604;2022-07-17T01:10:00;102133.73;;;14.86;64.04
58739;BME280;44512;53.046;18.604;2022-07-17T01:20:29;102132.16;;;14.77;64.35
58739;BME280;44512;53.046;18.604;2022-07-17T01:30:57;102144.05;;;14.69;64.68
58739;BME280;44512;53.046;18.604;2022-07-17T01:41:25;102141.23;;;14.63;65.03
58739;BME280;44512;53.046;18.604;2022-07-17T01:51:54;102145.84;;;14.62;65.20
58739;BME280;44512;53.046;18.604;2022-07-17T02:02:22;102123.70;;;14.50;65.48
58739;BME280;44512;53.046;18.604;2022-07-17T02:12:51;102139.01;;;14.51;65.81
58739;BME280;44512;53.046;18.604;2022-07-17T02:23:19;102143.82;;;14.49;66.03
58739;BME280;44512;53.046;18.604;2022-07-17T02:33:48;102137.73;;;14.47;66.10
58739;BME280;44512;53.046;18.604;2022-07-17T02:44:16;102139.75;;;14.45;66.19
58739;BME280;44512;53.046;18.604;2022-07-17T02:54:45;102144.55;;;14.43;66.26
58739;BME280;44512;53.046;18.604;2022-07-17T03:05:14;102161.94;;;14.42;66.33
58739;BME280;44512;53.046;18.604;2022-07-17T03:15:41;102167.76;;;14.39;66.58
58739;BME280;44512;53.046;18.604;2022-07-17T03:26:09;102177.82;;;14.39;66.85
58739;BME280;44512;53.046;18.604;2022-07-17T03:36:38;102196.41;;;14.35;67.04
58739;BME280;44512;53.046;18.604;2022-07-17T03:47:06;102207.02;;;14.30;67.28
58739;BME280;44512;53.046;18.604;2022-07-17T03:57:35;102201.30;;;14.25;67.50
58739;BME280;44512;53.046;18.604;2022-07-17T04:08:03;102204.70;;;14.27;67.83
58739;BME280;44512;53.046;18.604;2022-07-17T04:18:34;102217.65;;;14.25;68.24
58739;BME280;44512;53.046;18.604;2022-07-17T04:28:59;102226.09;;;14.30;68.69
58739;BME280;44512;53.046;18.604;2022-07-17T04:39:29;102220.92;;;14.35;69.18
58739;BME280;44512;53.046;18.604;2022-07-17T04:49:56;102234.82;;;14.40;69.69
58739;BME280;44512;53.046;18.604;2022-07-17T05:00:24;102237.29;;;14.50;70.14
58739;BME280;44512;53.046;18.604;2022-07-17T05:10:53;102234.07;;;14.61;70.50
58739;BME280;44512;53.046;18.604;2022-07-17T05:21:21;102258.77;;;14.74;70.78
58739;BME280;44512;53.046;18.604;2022-07-17T05:31:49;102251.99;;;14.85;70.91
58739;BME280;44512;53.046;18.604;2022-07-17T05:42:18;102263.04;;;14.98;71.15
58739;BME280;44512;53.046;18.604;2022-07-17T05:52:46;102273.26;;;15.11;71.21
58739;BME280;44512;53.046;18.604;2022-07-17T06:03:15;102293.35;;;15.25;71.29
58739;BME280;44512;53.046;18.604;2022-07-17T06:13:43;102307.12;;;15.38;71.13
58739;BME280;44512;53.046;18.604;2022-07-17T06:24:12;102321.75;;;15.52;71.10
58739;BME280;44512;53.046;18.604;2022-07-17T06:34:40;102330.55;;;15.69;70.91
58739;BME280;44512;53.046;18.604;2022-07-17T06:45:09;102335.10;;;15.83;70.67
58739;BME280;44512;53.046;18.604;2022-07-17T06:55:36;102335.88;;;15.98;70.46
58739;BME280;44512;53.046;18.604;2022-07-17T07:06:05;102362.70;;;16.16;69.46
58739;BME280;44512;53.046;18.604;2022-07-17T07:16:34;102346.20;;;16.31;68.71
58739;BME280;44512;53.046;18.604;2022-07-17T07:27:01;102364.40;;;16.45;66.62
58739;BME280;44512;53.046;18.604;2022-07-17T07:37:30;102358.16;;;16.58;66.01
58739;BME280;44512;53.046;18.604;2022-07-17T07:47:58;102368.34;;;16.71;64.62
58739;BME280;44512;53.046;18.604;2022-07-17T07:58:26;102368.04;;;16.87;63.47
58739;BME280;44512;53.046;18.604;2022-07-17T08:08:55;102383.06;;;17.04;62.02
58739;BME280;44512;53.046;18.604;2022-07-17T08:19:23;102387.55;;;17.18;60.37
58739;BME280;44512;53.046;18.604;2022-07-17T08:29:52;102385.73;;;17.32;59.84
58739;BME280;44512;53.046;18.604;2022-07-17T08:40:25;102380.71;;;17.49;58.02
58739;BME280;44512;53.046;18.604;2022-07-17T08:50:48;102386.03;;;17.70;57.59
58739;BME280;44512;53.046;18.604;2022-07-17T09:01:18;102379.78;;;17.90;56.81
58739;BME280;44512;53.046;18.604;2022-07-17T09:11:47;102394.74;;;18.07;57.06
58739;BME280;44512;53.046;18.604;2022-07-17T09:22:20;102400.24;;;18.20;54.96
58739;BME280;44512;53.046;18.604;2022-07-17T09:32:42;102392.01;;;18.47;51.13
58739;BME280;44512;53.046;18.604;2022-07-17T09:43:10;102401.27;;;18.59;51.93
58739;BME280;44512;53.046;18.604;2022-07-17T09:53:38;102391.80;;;18.68;51.31
58739;BME280;44512;53.046;18.604;2022-07-17T10:04:07;102387.13;;;18.76;49.96
58739;BME280;44512;53.046;18.604;2022-07-17T10:14:35;102370.23;;;18.85;47.08
58739;BME280;44512;53.046;18.604;2022-07-17T10:25:04;102388.76;;;19.03;47.15
58739;BME280;44512;53.046;18.604;2022-07-17T10:51:18;102413.97;;;19.32;44.21
58739;BME280;44512;53.046;18.604;2022-07-17T11:12:14;102399.90;;;19.66;44.33
58739;BME280;44512;53.046;18.604;2022-07-17T11:22:43;102393.07;;;19.75;42.15
58739;BME280;44512;53.046;18.604;2022-07-17T11:33:17;102394.66;;;19.90;41.77
58739;BME280;44512;53.046;18.604;2022-07-17T11:43:40;102400.23;;;20.08;42.70
58739;BME280;44512;53.046;18.604;2022-07-17T11:54:13;102393.58;;;20.22;42.11
58739;BME280;44512;53.046;18.604;2022-07-17T12:04:47;102410.28;;;20.46;42.54
58739;BME280;44512;53.046;18.604;2022-07-17T12:15:05;102410.20;;;20.59;41.69
58739;BME280;44512;53.046;18.604;2022-07-17T12:25:33;102399.12;;;20.66;40.99
58739;BME280;44512;53.046;18.604;2022-07-17T12:36:01;102395.45;;;20.72;39.95
58739;BME280;44512;53.046;18.604;2022-07-17T12:46:29;102403.34;;;20.87;39.77
58739;BME280;44512;53.046;18.604;2022-07-17T12:56:58;102389.45;;;21.00;39.87
58739;BME280;44512;53.046;18.604;2022-07-17T13:07:26;102414.20;;;21.18;39.34
58739;BME280;44512;53.046;18.604;2022-07-17T13:17:54;102407.25;;;21.34;38.29
58739;BME280;44512;53.046;18.604;2022-07-17T13:28:23;102404.09;;;21.49;37.72
58739;BME280;44512;53.046;18.604;2022-07-17T13:38:51;102406.34;;;21.70;37.05
58739;BME280;44512;53.046;18.604;2022-07-17T13:49:19;102406.16;;;21.83;36.29
58739;BME280;44512;53.046;18.604;2022-07-17T13:59:47;102410.98;;;22.00;35.72
58739;BME280;44512;53.046;18.604;2022-07-17T14:10:15;102399.34;;;22.28;34.94
58739;BME280;44512;53.046;18.604;2022-07-17T14:20:44;102417.69;;;22.57;34.72
58739;BME280;44512;53.046;18.604;2022-07-17T14:31:12;102414.82;;;22.76;34.73
58739;BME280;44512;53.046;18.604;2022-07-17T14:41:41;102402.45;;;23.02;33.78
58739;BME280;44512;53.046;18.604;2022-07-17T14:52:09;102413.71;;;23.12;34.73
58739;BME280;44512;53.046;18.604;2022-07-17T15:02:37;102407.52;;;23.33;33.91
58739;BME280;44512;53.046;18.604;2022-07-17T15:13:05;102411.76;;;23.64;33.26
58739;BME280;44512;53.046;18.604;2022-07-17T15:23:34;102398.84;;;23.99;33.09
58739;BME280;44512;53.046;18.604;2022-07-17T15:34:02;102410.84;;;24.21;32.74
58739;BME280;44512;53.046;18.604;2022-07-17T15:44:30;102414.30;;;24.45;32.65
58739;BME280;44512;53.046;18.604;2022-07-17T15:54:59;102407.12;;;24.83;31.86
58739;BME280;44512;53.046;18.604;2022-07-17T16:05:27;102400.84;;;25.09;31.62
58739;BME280;44512;53.046;18.604;2022-07-17T16:15:56;102379.14;;;25.23;31.50
58739;BME280;44512;53.046;18.604;2022-07-17T16:26:24;102394.31;;;25.42;30.44
58739;BME280;44512;53.046;18.604;2022-07-17T16:36:52;102385.54;;;25.51;30.18
58739;BME280;44512;53.046;18.604;2022-07-17T16:47:20;102373.41;;;25.57;29.83
58739;BME280;44512;53.046;18.604;2022-07-17T16:57:49;102387.16;;;25.46;29.85
58739;BME280;44512;53.046;18.604;2022-07-17T17:08:17;102378.87;;;25.25;30.33
58739;BME280;44512;53.046;18.604;2022-07-17T17:18:45;102392.40;;;25.21;29.74
58739;BME280;44512;53.046;18.604;2022-07-17T17:29:13;102383.80;;;25.01;30.25
58739;BME280;44512;53.046;18.604;2022-07-17T17:39:42;102393.70;;;24.75;30.77
58739;BME280;44512;53.046;18.604;2022-07-17T17:50:10;102389.91;;;24.42;31.16
58739;BME280;44512;53.046;18.604;2022-07-17T18:00:39;102398.42;;;24.07;31.44
58739;BME280;44512;53.046;18.604;2022-07-17T18:11:07;102404.59;;;23.80;32.05
58739;BME280;44512;53.046;18.604;2022-07-17T18:21:35;102407.07;;;23.65;32.51
58739;BME280;44512;53.046;18.604;2022-07-17T18:32:04;102415.71;;;23.57;32.90
58739;BME280;44512;53.046;18.604;2022-07-17T18:42:32;102428.75;;;23.45;32.99
58739;BME280;44512;53.046;18.604;2022-07-17T18:53:00;102425.66;;;23.29;33.11
58739;BME280;44512;53.046;18.604;2022-07-17T19:03:29;102449.50;;;23.07;33.36
58739;BME280;44512;53.046;18.604;2022-07-17T19:13:58;102461.88;;;22.93;33.67
58739;BME280;44512;53.046;18.604;2022-07-17T19:24:25;102475.88;;;22.79;33.92
58739;BME280;44512;53.046;18.604;2022-07-17T19:34:53;102482.12;;;22.63;34.20
58739;BME280;44512;53.046;18.604;2022-07-17T19:45:22;102473.46;;;22.48;34.58
58739;BME280;44512;53.046;18.604;2022-07-17T19:55:50;102487.95;;;22.31;35.04
58739;BME280;44512;53.046;18.604;2022-07-17T20:06:18;102491.38;;;22.15;35.53
58739;BME280;44512;53.046;18.604;2022-07-17T20:16:47;102489.72;;;21.96;36.04
58739;BME280;44512;53.046;18.604;2022-07-17T20:27:15;102488.93;;;21.77;36.53
58739;BME280;44512;53.046;18.604;2022-07-17T20:37:43;102495.09;;;21.61;36.98
58739;BME280;44512;53.046;18.604;2022-07-17T20:48:13;102494.41;;;21.47;37.30
58739;BME280;44512;53.046;18.604;2022-07-17T20:58:40;102496.27;;;21.28;38.63
58739;BME280;44512;53.046;18.604;2022-07-17T21:09:09;102492.53;;;21.04;39.04
58739;BME280;44512;53.046;18.604;2022-07-17T21:19:37;102496.58;;;20.76;39.59
58739;BME280;44512;53.046;18.604;2022-07-17T21:30:06;102506.48;;;20.59;40.33
58739;BME280;44512;53.046;18.604;2022-07-17T21:40:34;102513.11;;;20.45;40.45
58739;BME280;44512;53.046;18.604;2022-07-17T21:51:02;102512.52;;;20.36;40.50
58739;BME280;44512;53.046;18.604;2022-07-17T22:01:31;102511.98;;;20.27;40.89
58739;BME280;44512;53.046;18.604;2022-07-17T22:11:59;102518.01;;;20.11;41.26
58739;BME280;44512;53.046;18.604;2022-07-17T22:22:27;102513.04;;;19.88;41.60
58739;BME280;44512;53.046;18.604;2022-07-17T22:32:56;102513.12;;;19.68;42.25
58739;BME280;44512;53.046;18.604;2022-07-17T22:43:24;102509.78;;;19.53;43.01
58739;BME280;44512;53.046;18.604;2022-07-17T22:53:52;102502.25;;;19.35;43.79
58739;BME280;44512;53.046;18.604;2022-07-17T23:04:21;102500.17;;;19.24;44.18
58739;BME280;44512;53.046;18.604;2022-07-17T23:14:49;102501.47;;;19.08;44.83
58739;BME280;44512;53.046;18.604;2022-07-17T23:25:17;102497.67;;;18.96;45.13
58739;BME280;44512;53.046;18.604;2022-07-17T23:35:46;102499.79;;;18.81;45.59
58739;BME280;44512;53.046;18.604;2022-07-17T23:46:14;102497.24;;;18.66;45.83
58739;BME280;44512;53.046;18.604;2022-07-17T23:56:42;102508.63;;;18.49;46.16
